createdAt,value
2018-10-05T00:00:58.197Z,1.45
2018-10-05T00:06:53.243Z,1.37
2018-10-05T00:12:48.248Z,1.24
2018-10-05T00:18:43.206Z,2.36
2018-10-05T00:24:38.211Z,2.41
2018-10-05T00:30:33.209Z,1.7
2018-10-05T00:36:28.218Z,1.64
2018-10-05T00:42:23.260Z,3.27
2018-10-05T00:48:18.202Z,1.54
2018-10-05T00:54:13.250Z,1.76
2018-10-05T01:00:08.215Z,1.51
2018-10-05T01:06:03.198Z,1.76
2018-10-05T01:11:58.219Z,2.4
2018-10-05T01:17:53.223Z,2.01
2018-10-05T01:23:48.208Z,2.17
2018-10-05T01:29:43.262Z,2.52
2018-10-05T01:35:38.219Z,2.08
2018-10-05T01:41:33.234Z,2.58
2018-10-05T01:47:28.240Z,1.7
2018-10-05T01:53:23.271Z,2.51
2018-10-05T01:59:18.251Z,1.9
2018-10-05T02:05:13.278Z,2.18
2018-10-05T02:11:08.254Z,1.85
2018-10-05T02:17:03.286Z,2.03
2018-10-05T02:22:58.254Z,2.94
2018-10-05T02:28:53.280Z,1.98
2018-10-05T02:34:48.268Z,2.6
2018-10-05T02:40:43.279Z,2.38
2018-10-05T02:46:38.264Z,3.11
2018-10-05T02:52:33.316Z,2.66
2018-10-05T02:58:28.291Z,1.93
2018-10-05T03:04:23.297Z,2.13
2018-10-05T03:10:18.300Z,1.74
2018-10-05T03:16:13.307Z,2.62
2018-10-05T03:22:08.296Z,2.13
2018-10-05T03:28:03.314Z,2.7
2018-10-05T03:33:58.314Z,2.07
2018-10-05T03:39:53.334Z,2.9
2018-10-05T03:45:48.297Z,2.27
2018-10-05T03:51:43.362Z,2.07
2018-10-05T03:57:38.348Z,2.06
2018-10-05T04:03:33.323Z,2.34
2018-10-05T04:09:28.352Z,1.9
2018-10-05T04:15:23.335Z,1.83
2018-10-05T04:21:18.375Z,2.96
2018-10-05T04:27:13.477Z,3.75
2018-10-05T04:33:08.351Z,3.41
2018-10-05T04:39:03.398Z,1.99
2018-10-05T04:44:58.360Z,2.5
2018-10-05T04:50:53.407Z,2.67
2018-10-05T04:56:48.496Z,3.13
2018-10-05T05:02:43.370Z,2.64
2018-10-05T05:08:38.373Z,2.87
2018-10-05T05:14:33.383Z,4.09
2018-10-05T05:20:28.444Z,2.55
2018-10-05T05:26:23.470Z,2.58
2018-10-05T05:32:18.464Z,2.5
2018-10-05T05:38:13.379Z,2.62
2018-10-05T05:44:08.402Z,2.86
2018-10-05T05:50:03.413Z,2.35
2018-10-05T05:55:58.407Z,2.88
2018-10-05T06:01:53.405Z,2.95
2018-10-05T06:07:48.427Z,3.02
2018-10-05T06:13:43.451Z,4.28
2018-10-05T06:19:38.420Z,4.34
2018-10-05T06:25:33.426Z,4.75
2018-10-05T06:31:28.421Z,4.03
2018-10-05T06:37:23.461Z,3.13
2018-10-05T06:43:18.469Z,2.9
2018-10-05T06:49:13.445Z,3.3
2018-10-05T06:55:08.450Z,3.13
2018-10-05T07:01:03.432Z,3.24
2018-10-05T07:06:58.464Z,5.24
2018-10-05T07:12:53.501Z,2.96
2018-10-05T07:18:48.451Z,2.68
2018-10-05T07:24:43.456Z,3.33
2018-10-05T07:30:38.470Z,2.83
2018-10-05T07:36:33.487Z,3.73
2018-10-05T07:42:28.506Z,2.95
2018-10-05T07:48:23.486Z,3.71
2018-10-05T07:54:18.488Z,4.67
2018-10-05T08:00:13.510Z,3.85
2018-10-05T08:06:08.602Z,2.65
2018-10-05T08:12:03.561Z,3.33
2018-10-05T08:17:58.496Z,4.05
2018-10-05T08:23:53.508Z,3.15
2018-10-05T08:29:48.500Z,3.27
2018-10-05T08:35:43.488Z,3.12
2018-10-05T08:41:38.523Z,3.84
2018-10-05T08:47:33.546Z,3.03
2018-10-05T08:53:28.594Z,3.68
2018-10-05T08:59:23.533Z,4.26
2018-10-05T09:05:18.548Z,4.17
2018-10-05T09:11:13.597Z,6.39
2018-10-05T09:17:08.528Z,4.54
2018-10-05T09:23:03.563Z,3.2
2018-10-05T09:28:58.545Z,3.89
2018-10-05T09:34:53.550Z,4.22
2018-10-05T09:40:48.554Z,2.86
2018-10-05T09:46:43.578Z,3.62
2018-10-05T09:52:38.683Z,4.16
2018-10-05T09:58:33.569Z,3.65
2018-10-05T10:04:28.587Z,4.02
2018-10-05T10:10:23.581Z,3.28
2018-10-05T10:16:18.603Z,3.7
2018-10-05T10:22:13.577Z,3.2
2018-10-05T10:28:08.684Z,3.8
2018-10-05T10:34:03.636Z,2.97
2018-10-05T10:39:58.659Z,2.71
2018-10-05T10:45:53.626Z,6.72
2018-10-05T10:51:48.633Z,2.96
2018-10-05T10:57:43.648Z,2.4
2018-10-05T11:03:38.626Z,3.01
2018-10-05T11:09:33.720Z,3.95
2018-10-05T11:15:28.643Z,3.13
2018-10-05T11:21:23.652Z,2.68
2018-10-05T11:27:18.644Z,4.39
2018-10-05T11:33:13.642Z,5.62
2018-10-05T11:39:08.663Z,4.94
2018-10-05T11:45:03.659Z,3.68
2018-10-05T11:50:58.652Z,3.13
2018-10-05T11:56:53.652Z,4.33
2018-10-05T12:02:48.686Z,5.18
2018-10-05T12:08:43.666Z,4.04
2018-10-05T12:14:38.689Z,2.93
2018-10-05T12:20:33.675Z,4.87
2018-10-05T12:26:28.733Z,3.19
2018-10-05T12:32:23.732Z,3.7
2018-10-05T12:38:18.697Z,3.63
2018-10-05T12:44:13.727Z,5.07
2018-10-05T12:50:08.789Z,4.2
2018-10-05T12:56:03.733Z,4.21
2018-10-05T13:01:58.718Z,4.31
2018-10-05T13:07:53.722Z,4.4
2018-10-05T13:13:48.742Z,3.81
2018-10-05T13:19:43.754Z,4.37
2018-10-05T13:25:38.722Z,5.57
2018-10-05T13:31:33.766Z,4.29
2018-10-05T13:37:28.916Z,4.28
2018-10-05T13:43:23.739Z,6.16
2018-10-05T13:49:18.727Z,6.62
2018-10-05T13:55:13.763Z,5.2
2018-10-05T14:01:08.757Z,5.99
2018-10-05T14:07:03.857Z,6.14
2018-10-05T14:12:58.767Z,6.96
2018-10-05T14:18:53.803Z,12.24
2018-10-05T14:24:48.782Z,5.87
2018-10-05T14:30:43.793Z,7.4
2018-10-05T14:36:38.787Z,4.79
2018-10-05T14:42:33.794Z,6.37
2018-10-05T14:48:28.786Z,6.28
2018-10-05T14:54:23.823Z,6.27
2018-10-05T15:00:18.829Z,5.02
2018-10-05T15:06:13.821Z,10.75
2018-10-05T15:12:08.804Z,7.63
2018-10-05T15:18:03.856Z,10.78
2018-10-05T15:23:58.828Z,6.82
2018-10-05T15:29:53.820Z,4.9
2018-10-05T15:35:48.831Z,4.29
2018-10-05T15:41:43.878Z,4.12
2018-10-05T15:47:38.888Z,4.71
2018-10-05T15:53:33.826Z,3.29
2018-10-05T15:59:28.869Z,5.44
2018-10-05T16:05:23.912Z,4.51
2018-10-05T16:11:18.890Z,4.09
2018-10-05T16:17:13.916Z,4.51
2018-10-05T16:23:08.908Z,4.18
2018-10-05T16:29:03.900Z,7.33
2018-10-05T16:34:58.912Z,4.85
2018-10-05T16:40:53.880Z,6.16
2018-10-05T16:46:48.869Z,4.8
2018-10-05T16:52:43.865Z,4.78
2018-10-05T16:58:38.942Z,6.6
2018-10-05T17:04:33.891Z,7.92
2018-10-05T17:10:28.979Z,7.43
2018-10-05T17:16:23.883Z,6.65
2018-10-05T17:22:18.895Z,8.46
2018-10-05T17:28:13.899Z,5.66
2018-10-05T17:34:08.908Z,7.55
2018-10-05T17:40:03.936Z,5.29
2018-10-05T17:45:58.897Z,6.36
2018-10-05T17:51:54.000Z,5.85
2018-10-05T17:57:48.958Z,5.63
2018-10-05T18:03:43.921Z,5.15
2018-10-05T18:09:38.968Z,4.65
2018-10-05T18:15:33.934Z,7.19
2018-10-05T18:21:28.953Z,9.48
2018-10-05T18:27:23.927Z,9.15
2018-10-05T18:33:18.949Z,7.07
2018-10-05T18:39:13.948Z,6.87
2018-10-05T18:45:08.938Z,9.4
2018-10-05T18:51:03.982Z,7.98
2018-10-05T18:56:58.941Z,5.34
2018-10-05T19:02:53.975Z,6.59
2018-10-05T19:08:48.986Z,5.58
2018-10-05T19:14:43.979Z,7.03
2018-10-05T19:20:39.011Z,5.28
2018-10-05T19:26:34.249Z,6.77
2018-10-05T19:32:28.980Z,5.65
2018-10-05T19:38:24.003Z,4.42
2018-10-05T19:44:18.995Z,5.53
2018-10-05T19:50:13.990Z,3.81
2018-10-05T19:56:09.087Z,4.3
2018-10-05T20:02:04.094Z,5.49
2018-10-05T20:07:58.999Z,4.01
2018-10-05T20:13:54.024Z,6.3
2018-10-05T20:19:49.021Z,5.28
2018-10-05T20:25:44.017Z,4.81
2018-10-05T20:31:39.036Z,5.19
2018-10-05T20:37:34.322Z,6.56
2018-10-05T20:43:29.096Z,5
2018-10-05T20:49:24.054Z,5.82
2018-10-05T20:55:19.037Z,4.63
2018-10-05T21:01:14.060Z,4.87
2018-10-05T21:07:09.051Z,5.33
2018-10-05T21:13:04.073Z,4.56
2018-10-05T21:18:59.088Z,6.13
2018-10-05T21:24:54.059Z,7.18
2018-10-05T21:30:49.097Z,5.75
2018-10-05T21:36:44.074Z,5.05
2018-10-05T21:42:39.068Z,6.17
2018-10-05T21:48:34.079Z,5.53
2018-10-05T21:54:29.077Z,7.56
2018-10-05T22:00:24.072Z,6.18
2018-10-05T22:06:19.103Z,7.61
2018-10-05T22:12:14.130Z,6.94
2018-10-05T22:18:09.094Z,6.93
2018-10-05T22:24:04.091Z,7.45
2018-10-05T22:29:59.116Z,10.07
2018-10-05T22:35:54.081Z,7.13
2018-10-05T22:41:49.118Z,6.07
2018-10-05T22:47:44.124Z,8.45
2018-10-05T22:53:39.159Z,7.63
2018-10-05T22:59:34.120Z,8.06
2018-10-05T23:05:29.117Z,8.91
2018-10-05T23:11:24.186Z,8.95
2018-10-05T23:17:19.120Z,8.04
2018-10-05T23:23:14.194Z,9.35
2018-10-05T23:29:09.148Z,10.04
2018-10-05T23:35:04.153Z,6.29
2018-10-05T23:40:59.133Z,8.07
2018-10-05T23:46:54.155Z,7.91
2018-10-05T23:52:49.191Z,9.09
2018-10-05T23:58:44.210Z,9.16
